Time;durP1;ratioP1;P1;durP2;ratioP2;P2;SDS_P1;SDS_P2;PMS_P1;PMS_P2;Temp;Humidity;BMP_temperature;BMP_pressure;BME280_temperature;BME280_humidity;BME280_pressure;Samples;Min_cycle;Max_cycle;Signal;HPM_P1;HPM_P2
2023/12/09 00:00:09;;;;;;;;;;;;;;;;;;5042478;28;20407;-50
2023/12/09 00:02:35;;;;;;;;;;;;;;;;;;5045157;28;20384;-50
2023/12/09 00:05:01;;;;;;;;;;;;;;;;;;5043926;28;19956;-51
2023/12/09 00:07:27;;;;;;;;;;;;;;;;;;5039602;28;20351;-50
2023/12/09 00:09:53;;;;;;;;;;;;;;;;;;5037146;28;20012;-51
2023/12/09 00:12:19;;;;;;;;;;;;;;;;;;5040673;28;20017;-50
2023/12/09 00:14:45;;;;;;;;;;;;;;;;;;5035563;28;19964;-50
2023/12/09 00:17:11;;;;;;;;;;;;;;;;;;5046100;28;19956;-52
2023/12/09 00:19:37;;;;;;;;;;;;;;;;;;5039777;28;19960;-51
2023/12/09 00:22:03;;;;;;;;;;;;;;;;;;5036013;28;19964;-51
2023/12/09 00:24:30;;;;;;;;;;;;;;;;;;5041167;28;19991;-50
2023/12/09 00:26:56;;;;;;;;;;;;;;;;;;5034458;28;20009;-52
2023/12/09 00:29:22;;;;;;;;;;;;;;;;;;5034894;28;20003;-51
2023/12/09 00:31:48;;;;;;;;;;;;;;;;;;5039642;28;19992;-52
2023/12/09 00:34:14;;;;;;;;;;;;;;;;;;5037337;28;20446;-50
2023/12/09 00:36:40;;;;;;;;;;;;;;;;;;5038013;28;20015;-50
2023/12/09 00:39:06;;;;;;;;;;;;;;;;;;5039102;28;19968;-50
2023/12/09 00:41:31;;;;;;;;;;;;;;;;;;5034119;28;19964;-50
2023/12/09 00:43:57;;;;;;;;;;;;;;;;;;5041697;28;19955;-52
2023/12/09 00:46:23;;;;;;;;;;;;;;;;;;5042284;28;19970;-51
2023/12/09 00:48:49;;;;;;;;;;;;;;;;;;5042791;28;19982;-50
2023/12/09 00:51:15;;;;;;;;;;;;;;;;;;5037268;28;19964;-50
2023/12/09 00:53:41;;;;;;;;;;;;;;;;;;5037272;28;20107;-50
2023/12/09 00:56:07;;;;;;;;;;;;;;;;;;5044345;28;19976;-50
2023/12/09 00:58:33;;;;;;;;;;;;;;;;;;5037848;28;20002;-51
2023/12/09 01:00:59;;;;;;;;;;;;;;;;;;5039077;28;19993;-51
2023/12/09 01:03:25;;;;;;;;;;;;;;;;;;5038328;28;19923;-50
2023/12/09 01:05:51;;;;;;;;;;;;;;;;;;5039952;28;19948;-51
2023/12/09 01:08:17;;;;;;;;;;;;;;;;;;5041506;28;19917;-51
2023/12/09 01:10:43;;;;;;;;;;;;;;;;;;5042499;28;20268;-50
2023/12/09 01:13:09;;;;;;;;;;;;;;;;;;5041620;28;20425;-50
2023/12/09 01:15:35;;;;;;;;;;;;;;;;;;5040272;28;19987;-50
2023/12/09 01:18:01;;;;;;;;;;;;;;;;;;5038972;28;20376;-50
2023/12/09 01:20:28;;;;;;;;;;;;;;;;;;5042189;28;19928;-51
2023/12/09 01:22:54;;;;;;;;;;;;;;;;;;5038518;28;20394;-50
2023/12/09 01:25:21;;;;;;;;;;;;;;;;;;5039626;28;19913;-51
2023/12/09 01:27:47;;;;;;;;;;;;;;;;;;5038914;28;19913;-50
2023/12/09 01:30:13;;;;;;;;;;;;;;;;;;5040924;28;19952;-50
2023/12/09 01:32:39;;;;;;;;;;;;;;;;;;5037251;28;19970;-51
2023/12/09 01:35:05;;;;;;;;;;;;;;;;;;5045985;28;19921;-51
2023/12/09 01:37:31;;;;;;;;;;;;;;;;;;5034922;28;19959;-50
2023/12/09 01:39:56;;;;;;;;;;;;;;;;;;5033073;28;19971;-51
2023/12/09 01:42:22;;;;;;;;;;;;;;;;;;5035057;28;19976;-50
2023/12/09 01:44:48;;;;;;;;;;;;;;;;;;5033724;28;20027;-50
2023/12/09 01:47:14;;;;;;;;;;;;;;;;;;5043469;28;20052;-50
2023/12/09 01:49:40;;;;;;;;;;;;;;;;;;5040994;28;19951;-50
2023/12/09 01:52:06;;;;;;;;;;;;;;;;;;5042128;28;19952;-50
2023/12/09 01:54:32;;;;;;;;;;;;;;;;;;5043670;28;19956;-50
2023/12/09 01:56:58;;;;;;;;;;;;;;;;;;5041425;28;19963;-52
2023/12/09 01:59:24;;;;;;;;;;;;;;;;;;5045054;28;19933;-50
2023/12/09 02:01:50;;;;;;;;;;;;;;;;;;5041504;28;19940;-51
2023/12/09 02:04:16;;;;;;;;;;;;;;;;;;5044129;28;19991;-50
2023/12/09 02:06:42;;;;;;;;;;;;;;;;;;5042215;28;20333;-50
2023/12/09 02:09:08;;;;;;;;;;;;;;;;;;5042547;28;20016;-50
2023/12/09 02:11:34;;;;;;;;;;;;;;;;;;5040845;28;19960;-50
2023/12/09 02:14:00;;;;;;;;;;;;;;;;;;5042721;28;19944;-51
2023/12/09 02:16:25;;;;;;;;;;;;;;;;;;5042411;28;19960;-51
2023/12/09 02:18:51;;;;;;;;;;;;;;;;;;5034579;28;19975;-50
2023/12/09 02:21:17;;;;;;;;;;;;;;;;;;5034581;28;20379;-50
2023/12/09 02:23:43;;;;;;;;;;;;;;;;;;5038286;28;20029;-50
2023/12/09 02:26:09;;;;;;;;;;;;;;;;;;5042406;28;20091;-50
2023/12/09 02:28:35;;;;;;;;;;;;;;;;;;5044076;28;19960;-50
2023/12/09 02:31:01;;;;;;;;;;;;;;;;;;5039343;28;19960;-50
2023/12/09 02:33:27;;;;;;;;;;;;;;;;;;5043232;28;19970;-50
2023/12/09 02:35:53;;;;;;;;;;;;;;;;;;5044295;28;19956;-51
2023/12/09 02:38:19;;;;;;;;;;;;;;;;;;5036040;28;20350;-50
2023/12/09 02:40:45;;;;;;;;;;;;;;;;;;5044885;28;19955;-51
2023/12/09 02:43:11;;;;;;;;;;;;;;;;;;5041410;28;20054;-50
2023/12/09 02:45:37;;;;;;;;;;;;;;;;;;5041268;28;19970;-51
2023/12/09 02:48:03;;;;;;;;;;;;;;;;;;5045590;28;19959;-51
2023/12/09 02:50:29;;;;;;;;;;;;;;;;;;5046815;28;19996;-52
2023/12/09 02:52:55;;;;;;;;;;;;;;;;;;5035633;28;20707;-51
2023/12/09 02:55:21;;;;;;;;;;;;;;;;;;5041524;28;20384;-51
2023/12/09 02:57:47;;;;;;;;;;;;;;;;;;5042270;28;19951;-51
2023/12/09 03:00:13;;;;;;;;;;;;;;;;;;5042005;28;20030;-52
2023/12/09 03:02:39;;;;;;;;;;;;;;;;;;5044496;28;19960;-51
2023/12/09 03:05:05;;;;;;;;;;;;;;;;;;5046570;28;20391;-52
2023/12/09 03:07:31;;;;;;;;;;;;;;;;;;5049344;28;19917;-51
2023/12/09 03:09:56;;;;;;;;;;;;;;;;;;5041997;28;19913;-50
2023/12/09 03:12:22;;;;;;;;;;;;;;;;;;5031708;28;19998;-51
2023/12/09 03:14:48;;;;;;;;;;;;;;;;;;5042317;28;19941;-50
2023/12/09 03:17:14;;;;;;;;;;;;;;;;;;5043551;28;19960;-52
2023/12/09 03:19:40;;;;;;;;;;;;;;;;;;5043105;28;20403;-53
2023/12/09 03:22:06;;;;;;;;;;;;;;;;;;5042159;28;20320;-53
2023/12/09 03:24:32;;;;;;;;;;;;;;;;;;5039218;28;19944;-53
2023/12/09 03:26:58;;;;;;;;;;;;;;;;;;5042399;28;20014;-53
2023/12/09 03:29:24;;;;;;;;;;;;;;;;;;5047749;28;19921;-53
2023/12/09 03:31:50;;;;;;;;;;;;;;;;;;5037160;28;19956;-52
2023/12/09 03:34:16;;;;;;;;;;;;;;;;;;5038736;28;19953;-52
2023/12/09 03:36:42;;;;;;;;;;;;;;;;;;5039042;28;19948;-53
2023/12/09 03:39:09;;;;;;;;;;;;;;;;;;5038417;28;19949;-52
2023/12/09 03:41:35;;;;;;;;;;;;;;;;;;5034847;28;20385;-52
2023/12/09 03:44:01;;;;;;;;;;;;;;;;;;5045296;28;19962;-52
2023/12/09 03:46:27;;;;;;;;;;;;;;;;;;5040073;28;19960;-52
2023/12/09 03:48:52;;;;;;;;;;;;;;;;;;5043203;28;19952;-52
2023/12/09 03:51:18;;;;;;;;;;;;;;;;;;5039510;28;19952;-53
2023/12/09 03:53:44;;;;;;;;;;;;;;;;;;5046782;28;20023;-51
2023/12/09 03:56:13;;;;;;;;;;;;;;;;;;5038196;28;19948;-51
2023/12/09 03:58:39;;;;;;;;;;;;;;;;;;5034182;28;20361;-51
2023/12/09 04:01:05;;;;;;;;;;;;;;;;;;5042896;28;19921;-52
2023/12/09 04:03:31;;;;;;;;;;;;;;;;;;5042546;28;19944;-54
2023/12/09 04:05:57;;;;;;;;;;;;;;;;;;5042974;28;19917;-54
2023/12/09 04:08:23;;;;;;;;;;;;;;;;;;5045985;28;19955;-54
2023/12/09 04:10:49;;;;;;;;;;;;;;;;;;5044471;28;19971;-54
2023/12/09 04:13:15;;;;;;;;;;;;;;;;;;5038102;28;19959;-54
2023/12/09 04:15:41;;;;;;;;;;;;;;;;;;5042081;28;19924;-54
2023/12/09 04:18:07;;;;;;;;;;;;;;;;;;5042051;28;19913;-54
2023/12/09 04:20:33;;;;;;;;;;;;;;;;;;5043168;28;19952;-54
2023/12/09 04:22:59;;;;;;;;;;;;;;;;;;5039722;28;19951;-54
2023/12/09 04:25:25;;;;;;;;;;;;;;;;;;5038954;28;20423;-54
2023/12/09 04:27:51;;;;;;;;;;;;;;;;;;5036481;28;19964;-54
2023/12/09 04:30:17;;;;;;;;;;;;;;;;;;5040945;28;19956;-54
2023/12/09 04:32:43;;;;;;;;;;;;;;;;;;5040457;28;19935;-54
2023/12/09 04:35:09;;;;;;;;;;;;;;;;;;5037705;28;19917;-54
2023/12/09 04:37:35;;;;;;;;;;;;;;;;;;5039026;28;19920;-54
2023/12/09 04:40:01;;;;;;;;;;;;;;;;;;5034702;28;20423;-54
2023/12/09 04:42:27;;;;;;;;;;;;;;;;;;5032934;28;19955;-54
2023/12/09 04:44:53;;;;;;;;;;;;;;;;;;5040618;28;20282;-54
2023/12/09 04:47:19;;;;;;;;;;;;;;;;;;5039219;28;19944;-54
2023/12/09 04:49:45;;;;;;;;;;;;;;;;;;5038467;28;19961;-54
2023/12/09 04:52:11;;;;;;;;;;;;;;;;;;5036199;28;19947;-54
2023/12/09 04:54:37;;;;;;;;;;;;;;;;;;5043588;28;19963;-56
2023/12/09 04:57:03;;;;;;;;;;;;;;;;;;5037081;28;19920;-56
2023/12/09 04:59:29;;;;;;;;;;;;;;;;;;5045661;28;19975;-55
2023/12/09 05:01:55;;;;;;;;;;;;;;;;;;5040511;28;19974;-56
2023/12/09 05:04:21;;;;;;;;;;;;;;;;;;5039912;28;19956;-56
2023/12/09 05:06:47;;;;;;;;;;;;;;;;;;5040424;28;19935;-56
2023/12/09 05:09:13;;;;;;;;;;;;;;;;;;5042354;28;20659;-56
2023/12/09 05:11:39;;;;;;;;;;;;;;;;;;5040754;28;19959;-56
2023/12/09 05:14:05;;;;;;;;;;;;;;;;;;5042512;28;19917;-56
2023/12/09 05:16:31;;;;;;;;;;;;;;;;;;5040378;28;19925;-56
2023/12/09 05:18:57;;;;;;;;;;;;;;;;;;5042847;28;20002;-56
2023/12/09 05:21:23;;;;;;;;;;;;;;;;;;5041609;28;19956;-56
2023/12/09 05:23:49;;;;;;;;;;;;;;;;;;5044230;28;19940;-56
2023/12/09 05:26:15;;;;;;;;;;;;;;;;;;5035424;28;19971;-56
2023/12/09 05:28:41;;;;;;;;;;;;;;;;;;5036394;28;20358;-56
2023/12/09 05:31:07;;;;;;;;;;;;;;;;;;5037092;28;20332;-56
2023/12/09 05:33:33;;;;;;;;;;;;;;;;;;5038922;28;19976;-56
2023/12/09 05:35:59;;;;;;;;;;;;;;;;;;5040893;28;19963;-54
2023/12/09 05:38:25;;;;;;;;;;;;;;;;;;5039977;28;19984;-54
2023/12/09 05:40:51;;;;;;;;;;;;;;;;;;5039627;28;19963;-54
2023/12/09 05:43:17;;;;;;;;;;;;;;;;;;5033307;28;19979;-54
2023/12/09 05:45:42;;;;;;;;;;;;;;;;;;5035220;28;20447;-54
2023/12/09 05:48:09;;;;;;;;;;;;;;;;;;5043511;28;20414;-52
2023/12/09 05:50:35;;;;;;;;;;;;;;;;;;5044253;28;19913;-53
2023/12/09 05:53:00;;;;;;;;;;;;;;;;;;5039084;28;20011;-52
2023/12/09 05:55:27;;;;;;;;;;;;;;;;;;5038319;28;20006;-51
2023/12/09 05:57:52;;;;;;;;;;;;;;;;;;5039172;28;19921;-52
2023/12/09 06:00:18;;;;;;;;;;;;;;;;;;5038526;28;19963;-52
2023/12/09 06:02:44;;;;;;;;;;;;;;;;;;5041207;28;19967;-52
2023/12/09 06:05:10;;;;;;;;;;;;;;;;;;5039313;28;20021;-52
2023/12/09 06:07:36;;;;;;;;;;;;;;;;;;5035624;28;20378;-52
2023/12/09 06:10:02;;;;;;;;;;;;;;;;;;5035427;28;19952;-53
2023/12/09 06:12:28;;;;;;;;;;;;;;;;;;5034833;28;19998;-52
2023/12/09 06:14:54;;;;;;;;;;;;;;;;;;5041406;28;19998;-52
2023/12/09 06:17:20;;;;;;;;;;;;;;;;;;5037218;28;19971;-52
2023/12/09 06:19:46;;;;;;;;;;;;;;;;;;5038574;28;20340;-52
2023/12/09 06:22:12;;;;;;;;;;;;;;;;;;5039984;28;19990;-52
2023/12/09 06:24:38;;;;;;;;;;;;;;;;;;5038933;28;20059;-53
2023/12/09 06:27:04;;;;;;;;;;;;;;;;;;5044345;28;19955;-52
2023/12/09 06:29:30;;;;;;;;;;;;;;;;;;5036245;28;19967;-51
2023/12/09 06:31:56;;;;;;;;;;;;;;;;;;5035509;28;20089;-52
2023/12/09 06:34:22;;;;;;;;;;;;;;;;;;5032742;28;19990;-52
2023/12/09 06:36:48;;;;;;;;;;;;;;;;;;5044136;28;19917;-52
2023/12/09 06:39:14;;;;;;;;;;;;;;;;;;5046626;28;20288;-53
2023/12/09 06:41:40;;;;;;;;;;;;;;;;;;5044531;28;20029;-52
2023/12/09 06:44:06;;;;;;;;;;;;;;;;;;5042384;28;20012;-52
2023/12/09 06:46:32;;;;;;;;;;;;;;;;;;5039549;28;20376;-53
2023/12/09 06:48:58;;;;;;;;;;;;;;;;;;5042732;28;20207;-52
2023/12/09 06:51:24;;;;;;;;;;;;;;;;;;5047510;28;20337;-53
2023/12/09 06:53:49;;;;;;;;;;;;;;;;;;5042774;28;19959;-52
2023/12/09 06:56:15;;;;;;;;;;;;;;;;;;5044540;28;20380;-52
2023/12/09 06:58:41;;;;;;;;;;;;;;;;;;5039524;28;19964;-52
2023/12/09 07:01:07;;;;;;;;;;;;;;;;;;5041869;28;19960;-52
2023/12/09 07:03:33;;;;;;;;;;;;;;;;;;5041346;28;19964;-52
2023/12/09 07:05:59;;;;;;;;;;;;;;;;;;5046967;28;19959;-54
2023/12/09 07:08:25;;;;;;;;;;;;;;;;;;5044933;28;20014;-52
2023/12/09 07:10:51;;;;;;;;;;;;;;;;;;5043561;28;19928;-52
2023/12/09 07:13:17;;;;;;;;;;;;;;;;;;5045913;28;20312;-52
2023/12/09 07:15:43;;;;;;;;;;;;;;;;;;5042900;28;20590;-53
2023/12/09 07:18:09;;;;;;;;;;;;;;;;;;5050750;28;20392;-52
2023/12/09 07:20:35;;;;;;;;;;;;;;;;;;5039798;28;20372;-53
2023/12/09 07:23:01;;;;;;;;;;;;;;;;;;5043206;28;19948;-53
2023/12/09 07:25:28;;;;;;;;;;;;;;;;;;5041277;28;19917;-53
2023/12/09 07:27:54;;;;;;;;;;;;;;;;;;5042604;28;19917;-53
2023/12/09 07:30:20;;;;;;;;;;;;;;;;;;5043420;28;19944;-53
2023/12/09 07:32:46;;;;;;;;;;;;;;;;;;5041263;28;19925;-52
2023/12/09 07:35:13;;;;;;;;;;;;;;;;;;5048494;28;19944;-51
2023/12/09 07:37:39;;;;;;;;;;;;;;;;;;5041068;28;19924;-52
2023/12/09 07:40:05;;;;;;;;;;;;;;;;;;5042151;28;19968;-54
2023/12/09 07:42:31;;;;;;;;;;;;;;;;;;5042953;28;20427;-52
2023/12/09 07:44:57;;;;;;;;;;;;;;;;;;5041226;28;19960;-53
2023/12/09 07:47:23;;;;;;;;;;;;;;;;;;5042588;28;19967;-53
2023/12/09 07:49:49;;;;;;;;;;;;;;;;;;5039845;28;19952;-52
2023/12/09 07:52:15;;;;;;;;;;;;;;;;;;5037056;28;20352;-53
2023/12/09 07:54:41;;;;;;;;;;;;;;;;;;5043138;28;19928;-54
2023/12/09 07:57:07;;;;;;;;;;;;;;;;;;5044504;28;19948;-52
2023/12/09 07:59:33;;;;;;;;;;;;;;;;;;5042502;28;20690;-52
2023/12/09 08:01:59;;;;;;;;;;;;;;;;;;5036774;28;20792;-52
2023/12/09 08:04:25;;;;;;;;;;;;;;;;;;5034786;28;19919;-52
2023/12/09 08:06:52;;;;;;;;;;;;;;;;;;5040930;28;20342;-51
2023/12/09 08:09:18;;;;;;;;;;;;;;;;;;5037110;28;19917;-58
2023/12/09 08:11:44;;;;;;;;;;;;;;;;;;5037681;28;20332;-53
2023/12/09 08:14:10;;;;;;;;;;;;;;;;;;5040222;28;19955;-53
2023/12/09 08:16:36;;;;;;;;;;;;;;;;;;5036187;28;19975;-53
2023/12/09 08:19:02;;;;;;;;;;;;;;;;;;5038088;28;20025;-53
2023/12/09 08:21:28;;;;;;;;;;;;;;;;;;5040031;28;19963;-53
2023/12/09 08:23:54;;;;;;;;;;;;;;;;;;5044039;28;20339;-53
2023/12/09 08:26:20;;;;;;;;;;;;;;;;;;5039466;28;19917;-53
2023/12/09 08:28:46;;;;;;;;;;;;;;;;;;5036594;28;19980;-53
2023/12/09 08:31:12;;;;;;;;;;;;;;;;;;5045698;28;19963;-53
2023/12/09 08:33:39;;;;;;;;;;;;;;;;;;5048265;28;19967;-53
2023/12/09 08:36:05;;;;;;;;;;;;;;;;;;5048695;28;20309;-53
2023/12/09 08:38:31;;;;;;;;;;;;;;;;;;5049119;28;19988;-53
2023/12/09 08:40:57;;;;;;;;;;;;;;;;;;5048332;28;19963;-53
2023/12/09 08:43:23;;;;;;;;;;;;;;;;;;5078156;28;19959;-53
2023/12/09 08:45:49;;;;;;;;;;;;;;;;;;5045113;28;19932;-53
2023/12/09 08:48:15;;;;;;;;;;;;;;;;;;5046346;28;19951;-53
2023/12/09 08:50:41;;;;;;;;;;;;;;;;;;5049396;28;19971;-53
2023/12/09 08:53:07;;;;;;;;;;;;;;;;;;5050730;28;20372;-53
2023/12/09 08:55:33;;;;;;;;;;;;;;;;;;5050898;28;19951;-53
2023/12/09 08:57:59;;;;;;;;;;;;;;;;;;5044557;28;19913;-53
2023/12/09 09:00:26;;;;;;;;;;;;;;;;;;5030775;28;19967;-53
2023/12/09 09:02:55;;;;;;;;;;;;;;;;;;5031162;28;20448;-53
2023/12/09 09:05:22;;;;;;;;;;;;;;;;;;5050558;28;20340;-53
2023/12/09 09:07:48;;;;;;;;;;;;;;;;;;5049778;28;20015;-53
2023/12/09 09:10:13;;;;;;;;;;;;;;;;;;5050505;28;19991;-53
2023/12/09 09:12:39;;;;;;;;;;;;;;;;;;5049976;28;20006;-53
2023/12/09 09:15:06;;;;;;;;;;;;;;;;;;5050349;28;19920;-53
2023/12/09 09:17:34;;;;;;;;;;;;;;;;;;5050306;28;19916;-53
2023/12/09 09:20:00;;;;;;;;;;;;;;;;;;5050376;28;20000;-53
2023/12/09 09:22:26;;;;;;;;;;;;;;;;;;5049948;28;20012;-53
2023/12/09 09:24:52;;;;;;;;;;;;;;;;;;5050210;28;19916;-53
2023/12/09 09:27:18;;;;;;;;;;;;;;;;;;5049683;28;20008;-53
2023/12/09 09:29:45;;;;;;;;;;;;;;;;;;5050134;28;20276;-53
2023/12/09 09:32:11;;;;;;;;;;;;;;;;;;5049463;28;20384;-53
2023/12/09 09:34:37;;;;;;;;;;;;;;;;;;5049889;28;19960;-53
2023/12/09 09:37:03;;;;;;;;;;;;;;;;;;5049581;28;19959;-53
2023/12/09 09:39:29;;;;;;;;;;;;;;;;;;5049998;28;19971;-53
2023/12/09 09:41:55;;;;;;;;;;;;;;;;;;5049690;28;19940;-53
2023/12/09 09:44:22;;;;;;;;;;;;;;;;;;5049682;28;19913;-53
2023/12/09 09:46:48;;;;;;;;;;;;;;;;;;5049670;28;19919;-53
2023/12/09 09:49:14;;;;;;;;;;;;;;;;;;5050272;28;19909;-53
2023/12/09 09:51:40;;;;;;;;;;;;;;;;;;5049473;28;19935;-53
2023/12/09 09:54:06;;;;;;;;;;;;;;;;;;5049652;28;20352;-53
2023/12/09 09:56:32;;;;;;;;;;;;;;;;;;5049612;28;19916;-54
2023/12/09 09:58:58;;;;;;;;;;;;;;;;;;5049803;28;20492;-53
2023/12/09 10:01:24;;;;;;;;;;;;;;;;;;5049552;28;19952;-53
2023/12/09 10:03:50;;;;;;;;;;;;;;;;;;5049413;28;19979;-53
2023/12/09 10:06:16;;;;;;;;;;;;;;;;;;5049027;28;20407;-53
2023/12/09 10:08:43;;;;;;;;;;;;;;;;;;5035150;28;19959;-53
2023/12/09 10:11:08;;;;;;;;;;;;;;;;;;5031619;28;20630;-53
2023/12/09 10:13:35;;;;;;;;;;;;;;;;;;5032896;28;19916;-53
2023/12/09 10:16:00;;;;;;;;;;;;;;;;;;5033942;28;19915;-53
2023/12/09 10:18:26;;;;;;;;;;;;;;;;;;5065424;28;19913;-53
2023/12/09 10:20:52;;;;;;;;;;;;;;;;;;5033524;28;20344;-53
2023/12/09 10:23:18;;;;;;;;;;;;;;;;;;5033854;28;20006;-53
2023/12/09 10:25:46;;;;;;;;;;;;;;;;;;5033504;28;20469;-53
2023/12/09 10:28:12;;;;;;;;;;;;;;;;;;5032972;28;20279;-52
2023/12/09 10:30:38;;;;;;;;;;;;;;;;;;5033474;28;19935;-51
2023/12/09 10:33:04;;;;;;;;;;;;;;;;;;5032797;28;20022;-51
2023/12/09 10:35:30;;;;;;;;;;;;;;;;;;5033342;28;19964;-51
2023/12/09 10:37:56;;;;;;;;;;;;;;;;;;5032977;28;19973;-51
2023/12/09 10:40:22;;;;;;;;;;;;;;;;;;5033273;28;19964;-51
2023/12/09 10:42:48;;;;;;;;;;;;;;;;;;5033037;28;20336;-51
2023/12/09 10:45:14;;;;;;;;;;;;;;;;;;5033229;28;19949;-51
2023/12/09 10:47:40;;;;;;;;;;;;;;;;;;5032780;28;19967;-51
2023/12/09 10:50:07;;;;;;;;;;;;;;;;;;5033046;28;19913;-51
2023/12/09 10:52:33;;;;;;;;;;;;;;;;;;5032547;28;19913;-51
2023/12/09 10:54:58;;;;;;;;;;;;;;;;;;5033312;28;19924;-52
2023/12/09 10:57:24;;;;;;;;;;;;;;;;;;5032612;28;20032;-51
2023/12/09 10:59:52;;;;;;;;;;;;;;;;;;5032695;28;19975;-51
2023/12/09 11:02:18;;;;;;;;;;;;;;;;;;5032553;28;20316;-51
2023/12/09 11:04:44;;;;;;;;;;;;;;;;;;5049611;28;19994;-51
2023/12/09 11:07:09;;;;;;;;;;;;;;;;;;5052241;28;19952;-51
2023/12/09 11:09:35;;;;;;;;;;;;;;;;;;5052775;28;19960;-51
2023/12/09 11:12:01;;;;;;;;;;;;;;;;;;5052142;28;19944;-51
2023/12/09 11:14:27;;;;;;;;;;;;;;;;;;5052548;28;20010;-51
2023/12/09 11:16:53;;;;;;;;;;;;;;;;;;5051923;28;19955;-50
2023/12/09 11:19:19;;;;;;;;;;;;;;;;;;5052166;28;19923;-50
2023/12/09 11:21:47;;;;;;;;;;;;;;;;;;5052318;28;20479;-51
2023/12/09 11:24:12;;;;;;;;;;;;;;;;;;5052165;28;19951;-51
2023/12/09 11:26:38;;;;;;;;;;;;;;;;;;5051863;28;19916;-50
2023/12/09 11:29:04;;;;;;;;;;;;;;;;;;5052214;28;19951;-50
2023/12/09 11:31:30;;;;;;;;;;;;;;;;;;5052219;28;19973;-50
2023/12/09 11:33:56;;;;;;;;;;;;;;;;;;5051748;28;19980;-51
2023/12/09 11:36:23;;;;;;;;;;;;;;;;;;5051454;28;19959;-50
2023/12/09 11:38:49;;;;;;;;;;;;;;;;;;5052131;28;19944;-51
2023/12/09 11:41:15;;;;;;;;;;;;;;;;;;5051336;28;20407;-52
2023/12/09 11:43:41;;;;;;;;;;;;;;;;;;5051939;28;19954;-53
2023/12/09 11:46:06;;;;;;;;;;;;;;;;;;5051822;28;19948;-53
2023/12/09 11:48:33;;;;;;;;;;;;;;;;;;5051673;28;19980;-53
2023/12/09 11:50:59;;;;;;;;;;;;;;;;;;5051427;28;20410;-53
2023/12/09 11:53:25;;;;;;;;;;;;;;;;;;5051980;28;19932;-53
2023/12/09 11:55:50;;;;;;;;;;;;;;;;;;5051375;28;19995;-52
2023/12/09 11:58:16;;;;;;;;;;;;;;;;;;5051075;28;20047;-52
2023/12/09 12:00:42;;;;;;;;;;;;;;;;;;5051447;28;19968;-52
2023/12/09 12:03:08;;;;;;;;;;;;;;;;;;5051209;28;19944;-52
2023/12/09 12:05:34;;;;;;;;;;;;;;;;;;5051189;28;19984;-53
2023/12/09 12:08:00;;;;;;;;;;;;;;;;;;5051012;28;20016;-51
2023/12/09 12:10:26;;;;;;;;;;;;;;;;;;5051132;28;19952;-51
2023/12/09 12:12:52;;;;;;;;;;;;;;;;;;5050717;28;19948;-51
2023/12/09 12:15:18;;;;;;;;;;;;;;;;;;5051057;28;19956;-51
2023/12/09 12:17:44;;;;;;;;;;;;;;;;;;5050565;28;19997;-52
2023/12/09 12:20:10;;;;;;;;;;;;;;;;;;5051058;28;20408;-51
2023/12/09 12:22:36;;;;;;;;;;;;;;;;;;5050865;28;19917;-51
2023/12/09 12:25:04;;;;;;;;;;;;;;;;;;5050974;28;19948;-52
2023/12/09 12:27:29;;;;;;;;;;;;;;;;;;5050481;28;19913;-51
2023/12/09 12:29:55;;;;;;;;;;;;;;;;;;5049735;28;20022;-52
2023/12/09 12:32:22;;;;;;;;;;;;;;;;;;5050181;28;19990;-52
2023/12/09 12:34:48;;;;;;;;;;;;;;;;;;5050292;28;20373;-52
2023/12/09 12:37:14;;;;;;;;;;;;;;;;;;5050348;28;20030;-52
2023/12/09 12:39:41;;;;;;;;;;;;;;;;;;5041695;28;19948;-52
2023/12/09 12:42:08;;;;;;;;;;;;;;;;;;5030429;28;20360;-51
2023/12/09 12:44:34;;;;;;;;;;;;;;;;;;5031218;28;20250;-52
2023/12/09 12:47:00;;;;;;;;;;;;;;;;;;5030014;28;19955;-52
2023/12/09 12:49:26;;;;;;;;;;;;;;;;;;5030785;28;19965;-49
2023/12/09 12:51:53;;;;;;;;;;;;;;;;;;5029973;28;19913;-54
2023/12/09 12:54:19;;;;;;;;;;;;;;;;;;5030669;28;20376;-54
2023/12/09 12:56:45;;;;;;;;;;;;;;;;;;5030257;28;19990;-54
2023/12/09 12:59:11;;;;;;;;;;;;;;;;;;5030895;28;19956;-55
2023/12/09 13:01:37;;;;;;;;;;;;;;;;;;5030268;28;20354;-55
2023/12/09 13:04:03;;;;;;;;;;;;;;;;;;5041014;28;20041;-54
2023/12/09 13:06:29;;;;;;;;;;;;;;;;;;5049716;28;19948;-55
2023/12/09 13:08:55;;;;;;;;;;;;;;;;;;5050326;28;20313;-54
2023/12/09 13:11:21;;;;;;;;;;;;;;;;;;5049606;28;19956;-54
2023/12/09 13:13:47;;;;;;;;;;;;;;;;;;5049666;28;19944;-54
2023/12/09 13:16:13;;;;;;;;;;;;;;;;;;5046853;28;19959;-55
2023/12/09 13:18:39;;;;;;;;;;;;;;;;;;5050004;28;19960;-54
2023/12/09 13:21:06;;;;;;;;;;;;;;;;;;5049783;28;19940;-55
2023/12/09 13:23:32;;;;;;;;;;;;;;;;;;5050279;28;19927;-54
2023/12/09 13:25:58;;;;;;;;;;;;;;;;;;5049470;28;20019;-54
2023/12/09 13:28:25;;;;;;;;;;;;;;;;;;5049003;28;19925;-54
2023/12/09 13:30:51;;;;;;;;;;;;;;;;;;5048540;28;20290;-54
2023/12/09 13:33:16;;;;;;;;;;;;;;;;;;5049519;28;20205;-54
2023/12/09 13:35:42;;;;;;;;;;;;;;;;;;5049701;28;19947;-54
2023/12/09 13:38:08;;;;;;;;;;;;;;;;;;5050017;28;19915;-54
2023/12/09 13:40:35;;;;;;;;;;;;;;;;;;5033265;28;19948;-54
2023/12/09 13:43:01;;;;;;;;;;;;;;;;;;5029871;28;20296;-54
2023/12/09 13:45:27;;;;;;;;;;;;;;;;;;5030915;28;19913;-54
2023/12/09 13:47:53;;;;;;;;;;;;;;;;;;5033800;28;20328;-54
2023/12/09 13:50:19;;;;;;;;;;;;;;;;;;5033962;28;20028;-54
2023/12/09 13:52:45;;;;;;;;;;;;;;;;;;5033303;28;19948;-54
2023/12/09 13:55:11;;;;;;;;;;;;;;;;;;5033922;28;19971;-54
2023/12/09 13:57:37;;;;;;;;;;;;;;;;;;5033500;28;20434;-54
2023/12/09 14:00:07;;;;;;;;;;;;;;;;;;5034414;28;20007;-53
2023/12/09 14:02:33;;;;;;;;;;;;;;;;;;5033566;28;19909;-49
2023/12/09 14:04:59;;;;;;;;;;;;;;;;;;5052454;28;19912;-49
2023/12/09 14:07:26;;;;;;;;;;;;;;;;;;5053207;28;19958;-50
2023/12/09 14:09:52;;;;;;;;;;;;;;;;;;5052767;28;19913;-50
2023/12/09 14:12:18;;;;;;;;;;;;;;;;;;5051021;28;19959;-50
2023/12/09 14:14:44;;;;;;;;;;;;;;;;;;5051691;28;19967;-51
2023/12/09 14:17:11;;;;;;;;;;;;;;;;;;5051650;28;19945;-50
2023/12/09 14:19:37;;;;;;;;;;;;;;;;;;5053351;28;19920;-50
2023/12/09 14:22:04;;;;;;;;;;;;;;;;;;5052593;28;19913;-51
2023/12/09 14:24:30;;;;;;;;;;;;;;;;;;5053637;28;20372;-50
2023/12/09 14:26:56;;;;;;;;;;;;;;;;;;5052878;28;19959;-49
2023/12/09 14:29:22;;;;;;;;;;;;;;;;;;5053189;28;19916;-50
2023/12/09 14:31:48;;;;;;;;;;;;;;;;;;5052721;28;20403;-51
2023/12/09 14:34:14;;;;;;;;;;;;;;;;;;5052718;28;20396;-50
2023/12/09 14:36:40;;;;;;;;;;;;;;;;;;5052780;28;20344;-50
2023/12/09 14:39:09;;;;;;;;;;;;;;;;;;5048395;28;20388;-50
2023/12/09 14:41:35;;;;;;;;;;;;;;;;;;5032885;28;20452;-51
2023/12/09 14:44:01;;;;;;;;;;;;;;;;;;5033389;28;20084;-51
2023/12/09 14:46:27;;;;;;;;;;;;;;;;;;5032960;28;19970;-50
2023/12/09 14:48:53;;;;;;;;;;;;;;;;;;5032524;28;19948;-51
2023/12/09 14:51:19;;;;;;;;;;;;;;;;;;5032436;28;19979;-51
2023/12/09 14:53:45;;;;;;;;;;;;;;;;;;5032995;28;20428;-51
2023/12/09 14:56:11;;;;;;;;;;;;;;;;;;5031829;28;19945;-50
2023/12/09 14:58:37;;;;;;;;;;;;;;;;;;5032136;28;19916;-50
2023/12/09 15:01:03;;;;;;;;;;;;;;;;;;5031330;28;19948;-50
2023/12/09 15:03:29;;;;;;;;;;;;;;;;;;5036932;28;19909;-50
2023/12/09 15:05:55;;;;;;;;;;;;;;;;;;5051119;28;20372;-51
2023/12/09 15:08:21;;;;;;;;;;;;;;;;;;5051748;28;19909;-50
2023/12/09 15:10:49;;;;;;;;;;;;;;;;;;5052503;28;19994;-52
2023/12/09 15:13:14;;;;;;;;;;;;;;;;;;5052178;28;19917;-52
2023/12/09 15:15:40;;;;;;;;;;;;;;;;;;5052742;28;20299;-52
2023/12/09 15:18:06;;;;;;;;;;;;;;;;;;5051775;28;20388;-51
2023/12/09 15:20:32;;;;;;;;;;;;;;;;;;5052726;28;20359;-54
2023/12/09 15:22:58;;;;;;;;;;;;;;;;;;5051958;28;19913;-54
2023/12/09 15:25:24;;;;;;;;;;;;;;;;;;5052359;28;19917;-53
2023/12/09 15:27:50;;;;;;;;;;;;;;;;;;5051648;28;19959;-54
2023/12/09 15:30:18;;;;;;;;;;;;;;;;;;5052343;28;20407;-53
2023/12/09 15:32:44;;;;;;;;;;;;;;;;;;5051456;28;19935;-53
2023/12/09 15:35:10;;;;;;;;;;;;;;;;;;5052669;28;19913;-53
2023/12/09 15:37:36;;;;;;;;;;;;;;;;;;5051660;28;20010;-53
2023/12/09 15:40:02;;;;;;;;;;;;;;;;;;5040164;28;19983;-53
2023/12/09 15:42:28;;;;;;;;;;;;;;;;;;5031295;28;19941;-53
2023/12/09 15:44:54;;;;;;;;;;;;;;;;;;5032141;28;19959;-54
2023/12/09 15:47:20;;;;;;;;;;;;;;;;;;5030813;28;19948;-53
2023/12/09 15:49:46;;;;;;;;;;;;;;;;;;5031963;28;19960;-54
2023/12/09 15:52:12;;;;;;;;;;;;;;;;;;5030931;28;19960;-53
2023/12/09 15:54:38;;;;;;;;;;;;;;;;;;5032230;28;19940;-53
2023/12/09 15:57:03;;;;;;;;;;;;;;;;;;5031285;28;20429;-53
2023/12/09 15:59:29;;;;;;;;;;;;;;;;;;5031649;28;20536;-54
2023/12/09 16:01:55;;;;;;;;;;;;;;;;;;5031299;28;20321;-54
2023/12/09 16:04:22;;;;;;;;;;;;;;;;;;5045307;28;20379;-54
2023/12/09 16:06:48;;;;;;;;;;;;;;;;;;5051169;28;19913;-54
2023/12/09 16:09:14;;;;;;;;;;;;;;;;;;5050547;28;19971;-54
2023/12/09 16:11:40;;;;;;;;;;;;;;;;;;5051208;28;20665;-54
2023/12/09 16:14:06;;;;;;;;;;;;;;;;;;5051245;28;19994;-54
2023/12/09 16:16:32;;;;;;;;;;;;;;;;;;5051009;28;19916;-54
2023/12/09 16:18:58;;;;;;;;;;;;;;;;;;5050708;28;19962;-53
2023/12/09 16:21:25;;;;;;;;;;;;;;;;;;5050486;28;19975;-54
2023/12/09 16:23:50;;;;;;;;;;;;;;;;;;5051340;28;20368;-54
2023/12/09 16:26:16;;;;;;;;;;;;;;;;;;5050552;28;19924;-53
2023/12/09 16:28:45;;;;;;;;;;;;;;;;;;5050822;28;19948;-54
2023/12/09 16:31:11;;;;;;;;;;;;;;;;;;5050776;28;19912;-50
2023/12/09 16:33:37;;;;;;;;;;;;;;;;;;5050467;28;19935;-50
2023/12/09 16:36:03;;;;;;;;;;;;;;;;;;5050762;28;20339;-50